Terminal Aerodrome Forecast
Issued by NWS

Home | Current Version | Previous Version | Graphics & Text | Print | Product List | Glossary On
Versions: 1 2 3 4 5 6 7 8 9 10 11 12 13 14 15 16 17 18 19
443
FTUS43 KUNR 201734
TAFGCC
TAF
KGCC 201734Z 2018/2118 27010KT 2SM -SN OVC012
     FM202200 27007KT 5SM -SN OVC012
     FM210400 24007KT P6SM BKN020=

USA.gov is the U.S. government's official web portal to all federal, state and local government web resources and services.